キエフ/ボリースピリ の空港の天気 - METARとTAF

ボリースピリ国際空港(キエフ) ( UKBB / KBP ) - ウクライナ ボリスピリ (キエフ近郊)
飛行場実況気象(Metar)
観測時間01/20 07:00 EET (01/20 05:00 UTC)
風向・風速南西 4m/s
視程10km以上
天気現象
全天の4割程度の雲 雲底高度 850m
全天の8割程度の雲 雲底高度 1220m
気温-1℃
湿度86%
気圧1009hPa
METARUKBB 200500Z 22004MPS 9999 SCT028 BKN040 M01/M03 Q1009 R18L/851040 R18R///99// NOSIG
過去の天気等 Google飛行場航空写真 Wunderground天気予報

過去48時間のMETAR

飛行場予報(TAF)
発表時間: 1/20 01:02 EET (1/19 23:02 UTC)
予報対象時間: 20日2時 EET ~ 21日2時 EET
風向・風速西南西 6m/s 瞬間風速 12m/s
視程6,000m
全天の8割程度の雲 雲底高度 300m
20日2時 EET ~ 20日10時 EET に一時的に
視程1,600m
天気現象弱いしゅう雪雨 もや
全天の8割程度の雲 雲底高度 180m
全天の4割程度の積乱雲 雲底高度 610m
20日10時 EET ~ 20日18時 EET に一時的に
風向・風速西 6m/s 瞬間風速 12m/s
20日18時 EET ~ 20日20時 EET に徐々に
風向・風速南 3m/s
視程4,000m
天気現象もや
全天の8割程度の雲 雲底高度 180m
20日20時 EET ~ 21日2時 EET に一時的に
視程1,000m
天気現象もや
全天の8割程度の雲 雲底高度 60m
TAF UKBB 192302Z 2000/2024 24006G12MPS 6000 BKN010
TEMPO 2000/2008 1600 -SHSNRA BR BKN006 SCT020CB
TEMPO 2008/2016 27006G12MPS
BECMG 2016/2018 19003MPS 4000 BR BKN006
TEMPO 2018/2024 1000 BR BKN002 TX01/2012Z TNM04/2024Z